createdAt,value
2022-10-30T00:00:22.839Z,14.63
2022-10-30T00:05:26.020Z,15.20
2022-10-30T00:10:28.659Z,14.87
2022-10-30T00:15:31.326Z,14.88
2022-10-30T00:20:37.526Z,14.77
2022-10-30T00:25:40.579Z,14.57
2022-10-30T00:30:43.285Z,15.75
2022-10-30T00:35:49.971Z,13.50
2022-10-30T00:40:53.083Z,15.23
2022-10-30T00:45:58.486Z,14.63
2022-10-30T00:51:03.435Z,14.10
2022-10-30T00:56:08.658Z,14.65
2022-10-30T01:01:18.295Z,13.50
2022-10-30T01:06:21.347Z,13.95
2022-10-30T01:11:24.753Z,13.90
2022-10-30T01:16:52.339Z,14.27
2022-10-30T01:22:03.478Z,14.70
2022-10-30T01:27:31.226Z,14.50
2022-10-30T01:33:05.974Z,13.27
2022-10-30T01:38:13.129Z,13.13
2022-10-30T01:43:16.174Z,13.60
2022-10-30T01:48:21.845Z,14.27
2022-10-30T01:53:43.127Z,13.13
2022-10-30T01:59:14.849Z,11.90
2022-10-30T02:04:18.005Z,11.90
2022-10-30T02:09:20.858Z,12.70
2022-10-30T02:14:31.422Z,14.02
2022-10-30T02:19:34.594Z,12.37
2022-10-30T02:24:38.734Z,12.25
2022-10-30T02:29:42.734Z,11.95
2022-10-30T02:34:45.405Z,12.37
2022-10-30T02:39:49.640Z,12.75
2022-10-30T02:44:52.299Z,13.87
2022-10-30T02:49:54.941Z,13.93
2022-10-30T02:54:57.675Z,14.32
2022-10-30T03:00:00.643Z,13.93
2022-10-30T03:05:03.385Z,13.57
2022-10-30T03:10:06.499Z,13.30
2022-10-30T03:15:09.718Z,14.55
2022-10-30T03:20:12.762Z,14.13
2022-10-30T03:25:15.451Z,14.07
2022-10-30T03:30:18.131Z,13.43
2022-10-30T03:35:20.856Z,12.93
2022-10-30T03:40:23.499Z,13.65
2022-10-30T03:45:26.089Z,12.57
2022-10-30T03:50:28.920Z,12.13
2022-10-30T03:55:32.019Z,12.98
2022-10-30T04:00:36.106Z,11.63
2022-10-30T04:05:39.762Z,12.65
2022-10-30T04:10:46.985Z,11.30
2022-10-30T04:15:56.387Z,12.50
2022-10-30T04:21:01.184Z,11.85
2022-10-30T04:26:04.249Z,11.23
2022-10-30T04:31:07.239Z,11.52
2022-10-30T04:36:10.191Z,11.20
2022-10-30T04:41:12.939Z,11.80
2022-10-30T04:46:29.786Z,12.35
2022-10-30T04:51:38.918Z,12.60
2022-10-30T04:56:43.354Z,11.07
2022-10-30T05:01:46.275Z,11.35
2022-10-30T05:06:49.094Z,11.07
2022-10-30T05:11:56.015Z,11.23
2022-10-30T05:17:01.709Z,11.53
2022-10-30T05:22:04.682Z,11.95
2022-10-30T05:27:07.306Z,11.45
2022-10-30T05:32:11.291Z,11.97
2022-10-30T05:37:22.662Z,11.38
2022-10-30T05:42:25.381Z,12.07
2022-10-30T05:47:29.700Z,12.60
2022-10-30T05:52:33.185Z,12.30
2022-10-30T05:57:36.612Z,10.47
2022-10-30T06:02:39.457Z,10.10
2022-10-30T06:07:42.486Z,10.53
2022-10-30T06:12:56.637Z,11.75
2022-10-30T06:18:19.891Z,11.10
2022-10-30T06:23:28.394Z,11.97
2022-10-30T06:28:36.900Z,11.38
2022-10-30T06:33:39.792Z,11.97
2022-10-30T06:38:43.105Z,11.52
2022-10-30T06:43:49.179Z,12.20
2022-10-30T06:48:57.789Z,11.07
2022-10-30T06:55:06.953Z,10.40
2022-10-30T07:00:28.513Z,11.10
2022-10-30T07:05:49.219Z,11.20
2022-10-30T07:10:52.377Z,10.47
2022-10-30T07:16:11.734Z,10.65
2022-10-30T07:21:17.990Z,9.93
2022-10-30T07:26:21.440Z,11.82
2022-10-30T07:31:35.170Z,12.55
2022-10-30T07:37:03.728Z,12.20
2022-10-30T07:42:19.902Z,12.35
2022-10-30T07:47:44.119Z,14.03
2022-10-30T07:53:05.644Z,12.85
2022-10-30T07:58:09.861Z,11.43
2022-10-30T08:03:47.449Z,10.20
2022-10-30T08:09:03.818Z,10.52
2022-10-30T08:14:07.057Z,9.87
2022-10-30T08:19:09.869Z,9.93
2022-10-30T08:24:12.955Z,11.30
2022-10-30T08:29:18.709Z,11.30
2022-10-30T08:34:23.598Z,12.15
2022-10-30T08:39:28.657Z,11.10
2022-10-30T08:44:57.518Z,10.32
2022-10-30T08:50:03.295Z,10.13
2022-10-30T08:55:08.755Z,10.13
2022-10-30T09:00:12.796Z,11.10
2022-10-30T09:05:39.079Z,9.80
2022-10-30T09:10:58.082Z,9.90
2022-10-30T09:16:02.535Z,10.18
2022-10-30T09:21:08.228Z,8.43
2022-10-30T09:26:20.957Z,8.80
2022-10-30T09:31:32.112Z,8.60
2022-10-30T09:36:35.758Z,9.02
2022-10-30T09:42:07.928Z,7.85
2022-10-30T09:47:26.199Z,7.80
2022-10-30T09:52:41.959Z,8.13
2022-10-30T09:57:56.707Z,7.50
2022-10-30T10:03:24.506Z,8.00
2022-10-30T10:08:58.197Z,8.93
2022-10-30T10:14:24.755Z,7.97
2022-10-30T10:19:41.000Z,8.70
2022-10-30T10:24:47.958Z,8.20
2022-10-30T10:30:09.490Z,8.65
2022-10-30T10:35:44.268Z,8.32
2022-10-30T10:40:56.090Z,8.80
2022-10-30T10:46:39.182Z,8.20
2022-10-30T10:51:46.040Z,8.10
2022-10-30T10:56:50.537Z,8.27
2022-10-30T11:02:27.171Z,7.13
2022-10-30T11:07:45.438Z,7.70
2022-10-30T11:12:48.420Z,7.63
2022-10-30T11:18:14.842Z,6.83
2022-10-30T11:23:39.263Z,6.82
2022-10-30T11:28:50.893Z,6.40
2022-10-30T11:33:54.651Z,6.33
2022-10-30T11:39:09.570Z,6.70
2022-10-30T11:44:12.659Z,6.67
2022-10-30T11:49:37.633Z,6.72
2022-10-30T11:54:48.591Z,5.68
2022-10-30T12:00:02.111Z,6.37
2022-10-30T12:05:37.684Z,5.70
2022-10-30T12:10:54.606Z,5.97
2022-10-30T12:16:16.998Z,6.00
2022-10-30T12:21:20.841Z,5.95
2022-10-30T12:26:25.684Z,5.07
2022-10-30T12:31:57.362Z,5.00
2022-10-30T12:37:20.050Z,4.80
2022-10-30T12:42:25.200Z,4.60
2022-10-30T12:47:32.219Z,4.38
2022-10-30T12:52:47.510Z,4.63
2022-10-30T12:57:58.466Z,5.07
2022-10-30T13:03:14.279Z,4.57
2022-10-30T13:08:51.108Z,4.82
2022-10-30T13:13:58.115Z,4.88
2022-10-30T13:19:02.280Z,5.10
2022-10-30T13:24:16.010Z,4.95
2022-10-30T13:29:49.351Z,4.90
2022-10-30T13:34:54.932Z,4.07
2022-10-30T13:40:18.856Z,4.05
2022-10-30T13:46:07.557Z,4.43
2022-10-30T13:51:15.979Z,4.50
2022-10-30T13:56:20.071Z,4.30
2022-10-30T14:01:30.614Z,3.97
2022-10-30T14:06:33.948Z,3.40
2022-10-30T14:11:36.712Z,3.60
2022-10-30T14:16:46.860Z,3.65
2022-10-30T14:21:58.558Z,3.40
2022-10-30T14:27:04.337Z,3.60
2022-10-30T14:32:15.797Z,3.80
2022-10-30T14:37:27.715Z,3.77
2022-10-30T14:42:43.280Z,3.40
2022-10-30T14:47:45.918Z,3.70
2022-10-30T14:53:13.349Z,4.65
2022-10-30T14:58:21.351Z,4.00
2022-10-30T15:04:06.729Z,4.90
2022-10-30T15:09:27.578Z,3.92
2022-10-30T15:14:52.571Z,4.33
2022-10-30T15:19:58.499Z,4.72
2022-10-30T15:25:03.624Z,4.28
2022-10-30T15:30:07.558Z,4.20
2022-10-30T15:35:24.378Z,4.47
2022-10-30T15:40:28.069Z,4.57
2022-10-30T15:45:39.921Z,5.03
2022-10-30T15:50:45.900Z,4.57
2022-10-30T15:55:49.745Z,4.73
2022-10-30T16:01:01.271Z,4.75
2022-10-30T16:06:18.169Z,5.00
2022-10-30T16:11:22.958Z,4.57
2022-10-30T16:16:29.500Z,4.80
2022-10-30T16:21:33.057Z,4.57
2022-10-30T16:26:37.908Z,5.03
2022-10-30T16:31:43.027Z,4.50
2022-10-30T16:36:46.059Z,5.65
2022-10-30T16:41:49.289Z,5.57
2022-10-30T16:47:23.049Z,6.37
2022-10-30T16:52:35.731Z,6.20
2022-10-30T16:57:43.930Z,6.20
2022-10-30T17:02:49.029Z,5.38
2022-10-30T17:08:00.473Z,5.38
2022-10-30T17:13:33.172Z,5.07
2022-10-30T17:18:36.022Z,5.22
2022-10-30T17:23:49.830Z,5.17
2022-10-30T17:28:52.860Z,5.55
2022-10-30T17:34:15.429Z,5.88
2022-10-30T17:39:18.301Z,5.40
2022-10-30T17:44:24.102Z,6.05
2022-10-30T17:49:32.630Z,6.73
2022-10-30T17:54:35.790Z,6.32
2022-10-30T17:59:39.501Z,6.68
2022-10-30T18:04:42.799Z,6.60
2022-10-30T18:09:45.848Z,6.95
2022-10-30T18:14:48.857Z,6.93
2022-10-30T18:19:51.711Z,6.55
2022-10-30T18:24:54.763Z,6.68
2022-10-30T18:29:57.643Z,6.13
2022-10-30T18:35:00.643Z,6.30
2022-10-30T18:40:03.482Z,6.33
2022-10-30T18:45:24.662Z,6.75
2022-10-30T18:57:39.480Z,8.37
2022-10-30T19:02:42.913Z,7.90
2022-10-30T19:07:45.811Z,7.93
2022-10-30T19:13:11.037Z,7.35
2022-10-30T19:18:12.051Z,7.70
2022-10-30T19:23:32.420Z,7.37
2022-10-30T19:28:35.539Z,7.43
2022-10-30T19:33:38.221Z,7.63
2022-10-30T19:38:41.123Z,8.27
2022-10-30T19:43:43.700Z,7.80
2022-10-30T19:49:01.620Z,8.20
2022-10-30T19:54:04.496Z,7.72
2022-10-30T19:59:14.602Z,7.63
2022-10-30T20:04:17.711Z,7.43
2022-10-30T20:09:20.650Z,7.72
2022-10-30T20:14:23.385Z,7.23
2022-10-30T20:19:31.598Z,8.77
2022-10-30T20:24:34.264Z,7.47
2022-10-30T20:29:39.001Z,9.55
2022-10-30T20:34:41.941Z,9.90
2022-10-30T20:39:44.744Z,13.30
2022-10-30T20:44:47.510Z,12.48
2022-10-30T20:49:50.173Z,9.53
2022-10-30T20:54:52.857Z,10.85
2022-10-30T20:59:55.614Z,9.45
2022-10-30T21:05:11.599Z,9.00
2022-10-30T21:10:21.371Z,8.68
2022-10-30T21:15:24.401Z,9.03
2022-10-30T21:20:27.228Z,8.82
2022-10-30T21:25:32.703Z,9.55
2022-10-30T21:30:35.880Z,9.43
2022-10-30T21:35:38.700Z,8.57
2022-10-30T21:40:41.496Z,8.90
2022-10-30T21:45:44.324Z,7.78
2022-10-30T21:50:47.180Z,9.32
2022-10-30T21:55:49.924Z,10.57
2022-10-30T22:00:52.685Z,10.15
2022-10-30T22:05:55.721Z,11.70
2022-10-30T22:11:06.340Z,12.73
2022-10-30T22:16:12.511Z,13.63
2022-10-30T22:21:15.301Z,13.07
2022-10-30T22:26:21.195Z,14.45
2022-10-30T22:31:25.568Z,15.37
2022-10-30T22:36:31.474Z,15.82
2022-10-30T22:41:37.776Z,15.45
2022-10-30T22:46:41.912Z,16.27
2022-10-30T22:51:44.754Z,17.13
2022-10-30T22:56:47.509Z,17.67
2022-10-30T23:01:50.272Z,18.50
2022-10-30T23:06:53.049Z,15.95
2022-10-30T23:11:55.817Z,15.80
2022-10-30T23:16:58.555Z,15.75
2022-10-30T23:22:01.227Z,15.67
2022-10-30T23:27:03.994Z,14.25
2022-10-30T23:32:07.029Z,13.77
2022-10-30T23:37:10.005Z,14.17
2022-10-30T23:42:12.739Z,14.15
2022-10-30T23:47:15.500Z,12.53
2022-10-30T23:52:18.423Z,12.57
2022-10-30T23:57:21.527Z,13.88
